Colt — WDC6330 — position and weather

sailwx.info

Track history (hours):
 
Tides and Currents Weather Stations Pressure Air Temp Water Temp Dewpoint Dewpoint Depression Visibility Wind Speed Wind Dir Waves Ship Positions

Colt

Owner: ACL Transportation Services LLC, Jeffersonville, IN. More information available from US FCC via Universal Licensing System and Coast Guard Vessel Documentation Center.

Last reported at 2017-Oct-22 05:49 UTC. Time now 2017-Oct-22 06:23 UTC.
Position N 29°46' W 095°05'.

Length 20 m; draft 2.9 m.

Type: Towing. MMSI: 367054790.

Date/timePositionNaut miles runAvg speedWind from/ knotsBaromVisibWave heightAir tempDewpointWater temp
2017-Oct-22 05:49N 29°46' W 095°05'0 0.0
2017-Oct-22 04:10N 29°46' W 095°05'0 0.0
2017-Oct-22 03:58N 29°46' W 095°05'0 0.0
2017-Oct-21 22:10N 29°46' W 095°05'0 0.1
2017-Oct-21 21:41N 29°46' W 095°05'1 2.3
2017-Oct-21 21:19N 29°45' W 095°06'1 1.9
2017-Oct-21 21:00N 29°45' W 095°06'1 0.2
2017-Oct-21 17:28N 29°46' W 095°06'0 0.1
2017-Oct-21 16:56N 29°46' W 095°06'0 0.2
2017-Oct-21 16:30N 29°46' W 095°06'1 1.0
2017-Oct-21 15:44N 29°46' W 095°07'1 0.1
2017-Oct-21 05:53N 29°46' W 095°06'0 0.0
2017-Oct-21 05:29N 29°46' W 095°06'0 0.0
2017-Oct-21 04:59N 29°46' W 095°06'0 0.0
2017-Oct-21 04:28N 29°46' W 095°06'0 0.0
2017-Oct-20 14:54N 29°45' W 095°06'2 5.5
2017-Oct-20 14:30N 29°44' W 095°03'6 6.4
2017-Oct-20 13:30N 29°40' W 094°58'3 5.9
2017-Oct-20 13:00N 29°37' W 094°58'3 5.5
2017-Oct-20 12:30N 29°37' W 095°01'0 0.0
2017-Oct-20 12:00N 29°37' W 095°01'0 0.0
2017-Oct-20 11:30N 29°37' W 095°01'0 0.1
2017-Oct-20 11:00N 29°37' W 095°01'0 0.0
2017-Oct-20 10:30N 29°37' W 095°01'0 0.0
2017-Oct-20 10:00N 29°37' W 095°01'0 0.0
2017-Oct-20 09:30N 29°37' W 095°01'0 0.0
2017-Oct-20 09:00N 29°37' W 095°01'0 0.0
2017-Oct-20 08:30N 29°37' W 095°01'0 0.0
2017-Oct-20 08:00N 29°37' W 095°01'0 0.0
2017-Oct-20 07:30N 29°37' W 095°01'0 0.0
2017-Oct-20 07:00N 29°37' W 095°01'0 0.0
2017-Oct-20 06:30N 29°37' W 095°01'0 0.0
2017-Oct-20 06:00N 29°37' W 095°01'0 0.0
2017-Oct-20 05:30N 29°37' W 095°01'0 0.0
2017-Oct-20 05:00N 29°37' W 095°01'0 0.0
2017-Oct-20 04:30N 29°37' W 095°01'0 0.0
2017-Oct-20 04:00N 29°37' W 095°01'0 0.0
2017-Oct-20 03:30N 29°37' W 095°01'0 0.0
2017-Oct-20 03:00N 29°37' W 095°01'0 0.0
2017-Oct-20 02:30N 29°37' W 095°01'0 0.1
2017-Oct-20 02:00N 29°37' W 095°01'1 2.8
2017-Oct-20 01:30N 29°37' W 094°60'3 5.0
2017-Oct-20 00:51N 29°40' W 094°59'3 7.2
2017-Oct-20 00:26N 29°42' W 095°01'6 4.1
2017-Oct-19 22:53N 29°46' W 095°07'3 2.7
2017-Oct-19 21:55N 29°45' W 095°04'2 5.7
2017-Oct-19 21:30N 29°44' W 095°02'3 5.4
2017-Oct-19 21:00N 29°42' W 094°60'3 6.2
2017-Oct-19 20:30N 29°39' W 094°58'2 4.5
2017-Oct-19 20:00N 29°37' W 094°58'3 5.6
2017-Oct-19 19:30N 29°37' W 095°01'0 0.3
2017-Oct-19 19:00N 29°37' W 095°01'0 0.1
2017-Oct-19 18:30N 29°37' W 095°01'0 0.0
2017-Oct-19 18:00N 29°37' W 095°01'0 0.0
2017-Oct-19 17:30N 29°37' W 095°01'0 0.0
2017-Oct-19 17:00N 29°37' W 095°01'0 0.0
2017-Oct-19 16:30N 29°37' W 095°01'0 0.0
2017-Oct-19 16:00N 29°37' W 095°01'0 0.0
2017-Oct-19 15:30N 29°37' W 095°01'0 0.0
2017-Oct-19 15:00N 29°37' W 095°01'0 0.0
2017-Oct-19 14:30N 29°37' W 095°01'0 0.0
2017-Oct-19 14:00N 29°37' W 095°01'0 0.0
2017-Oct-19 13:30N 29°37' W 095°01'0 0.0
2017-Oct-19 13:00N 29°37' W 095°01'0 0.0
2017-Oct-19 12:30N 29°37' W 095°01'0 0.2
2017-Oct-19 12:00N 29°37' W 095°01'0 0.2
2017-Oct-19 11:30N 29°37' W 095°01'0 0.4
2017-Oct-19 11:00N 29°37' W 095°01'0 0.0
2017-Oct-19 10:30N 29°37' W 095°01'0 0.0
2017-Oct-19 10:00N 29°37' W 095°01'0 0.0
2017-Oct-19 09:30N 29°37' W 095°01'0 0.0
2017-Oct-19 09:00N 29°37' W 095°01'0 0.0
2017-Oct-19 08:30N 29°37' W 095°01'0 0.0
2017-Oct-19 08:00N 29°37' W 095°01'0 0.0
2017-Oct-19 07:30N 29°37' W 095°01'0 0.0
2017-Oct-19 07:00N 29°37' W 095°01'0 0.0
2017-Oct-19 06:30N 29°37' W 095°01'0 0.0
2017-Oct-19 06:00N 29°37' W 095°01'0 0.0
2017-Oct-19 05:30N 29°37' W 095°01'0 0.0
2017-Oct-19 05:00N 29°37' W 095°01'0 0.0
2017-Oct-19 04:30N 29°37' W 095°01'0 0.0
2017-Oct-19 04:00N 29°37' W 095°01'0 0.0
2017-Oct-19 03:30N 29°37' W 095°01'0 0.0
2017-Oct-19 03:00N 29°37' W 095°01'0 0.0
2017-Oct-19 02:30N 29°37' W 095°01'0 0.0
2017-Oct-19 02:00N 29°37' W 095°01'0 0.0
2017-Oct-19 01:30N 29°37' W 095°01'0 0.0
2017-Oct-19 01:00N 29°37' W 095°01'0 0.0
2017-Oct-19 00:30N 29°37' W 095°01'0 0.0
2017-Oct-19 00:00N 29°37' W 095°01'1 2.3
2017-Oct-18 23:30N 29°37' W 095°00'3 3.7
2017-Oct-18 22:41N 29°39' W 094°58'1 5.9
2017-Oct-18 22:30N 29°41' W 094°59'3 4.6
2017-Oct-18 21:57N 29°42' W 095°01'8 2.5
2017-Oct-18 18:51N 29°44' W 095°09'3 0.6
2017-Oct-18 13:34N 29°46' W 095°06'0 0.0
2017-Oct-18 13:06N 29°46' W 095°06'0 0.0
2017-Oct-18 12:56N 29°46' W 095°06'0 0.0
2017-Oct-18 12:30N 29°46' W 095°06'0 0.0
2017-Oct-18 11:59N 29°46' W 095°06'0 0.0
2017-Oct-18 11:30N 29°46' W 095°06'0 0.0
2017-Oct-18 10:59N 29°46' W 095°06'0 0.0
2017-Oct-18 10:30N 29°46' W 095°06'0 0.0
2017-Oct-18 09:59N 29°46' W 095°06'0 0.0
2017-Oct-18 09:03N 29°46' W 095°06'0 0.3
2017-Oct-18 08:55N 29°46' W 095°06'0 0.0
2017-Oct-18 08:30N 29°46' W 095°06'0 0.0
2017-Oct-18 07:42N 29°46' W 095°06'1 0.0
2017-Oct-17 13:55N 29°46' W 095°07'0 0.0
2017-Oct-17 13:23N 29°46' W 095°07'0 0.0
2017-Oct-17 12:55N 29°46' W 095°07'0 0.0
2017-Oct-17 12:30N 29°46' W 095°07'0 0.0
2017-Oct-17 12:00N 29°46' W 095°07'0 0.0
2017-Oct-17 11:30N 29°46' W 095°07'0 0.0
2017-Oct-17 10:59N 29°46' W 095°07'0 0.0
2017-Oct-17 10:30N 29°46' W 095°07'0 0.0
2017-Oct-17 09:58N 29°46' W 095°07'0 0.0
2017-Oct-17 09:30N 29°46' W 095°07'0 0.0
2017-Oct-17 08:59N 29°46' W 095°07'0 0.0
2017-Oct-17 08:30N 29°46' W 095°07'0 0.0
2017-Oct-17 08:00N 29°46' W 095°07'0 0.0
2017-Oct-17 07:30N 29°46' W 095°07'0 0.0
2017-Oct-17 07:00N 29°46' W 095°07'0 0.0
2017-Oct-17 06:30N 29°46' W 095°07'0 0.0
2017-Oct-17 06:00N 29°46' W 095°07'0 0.0
2017-Oct-17 05:29N 29°46' W 095°07'0 0.0
2017-Oct-17 05:00N 29°46' W 095°07'0 0.0
2017-Oct-17 04:30N 29°46' W 095°07'0 0.0
2017-Oct-17 03:59N 29°46' W 095°07'2 1.7
2017-Oct-17 02:53N 29°46' W 095°05'2 4.1
2017-Oct-17 02:27N 29°46' W 095°07'1 1.6
2017-Oct-17 01:46N 29°45' W 095°06'2 5.4
2017-Oct-17 01:19N 29°44' W 095°08'2 6.0
2017-Oct-17 00:55N 29°45' W 095°11'2 5.8
2017-Oct-17 00:30N 29°43' W 095°13'1 0.8
2017-Oct-16 23:44N 29°44' W 095°14'0 0.1
2017-Oct-16 23:29N 29°44' W 095°14'2 3.3
2017-Oct-16 22:51N 29°45' W 095°12'2 5.1
2017-Oct-16 22:26N 29°44' W 095°09'4 0.2
2017-Oct-16 04:41N 29°46' W 095°05'5 1.9
2017-Oct-16 01:53N 29°45' W 095°11'2 5.9
2017-Oct-16 01:30N 29°44' W 095°09'4 0.2
2017-Oct-15 06:37N 29°45' W 095°04'1 6.5
2017-Oct-15 06:29N 29°45' W 095°04'3 5.7
2017-Oct-15 06:00N 29°43' W 095°01'3 5.9
2017-Oct-15 05:30N 29°41' W 094°59'3 6.1
2017-Oct-15 05:00N 29°38' W 094°58'2 4.5
2017-Oct-15 04:30N 29°37' W 094°60'1 2.2
2017-Oct-15 04:00N 29°36' W 095°01'0 0.1
2017-Oct-15 03:30N 29°36' W 095°01'0 0.0
2017-Oct-15 03:00N 29°36' W 095°01'0 0.0
2017-Oct-15 02:30N 29°36' W 095°01'0 0.0
2017-Oct-15 02:00N 29°36' W 095°01'0 0.0
2017-Oct-15 01:30N 29°36' W 095°01'0 0.0
2017-Oct-15 01:00N 29°36' W 095°01'0 0.0
2017-Oct-15 00:30N 29°36' W 095°01'0 0.0
2017-Oct-15 00:00N 29°36' W 095°01'0 0.0
2017-Oct-14 23:30N 29°36' W 095°01'0 0.0
2017-Oct-14 23:00N 29°36' W 095°01'0 0.0
2017-Oct-14 22:30N 29°36' W 095°01'0 0.0
2017-Oct-14 22:00N 29°36' W 095°01'0 0.0
2017-Oct-14 21:30N 29°36' W 095°01'0 0.0
2017-Oct-14 21:00N 29°36' W 095°01'0 0.0
2017-Oct-14 20:30N 29°36' W 095°01'0 0.0
2017-Oct-14 20:00N 29°36' W 095°01'0 0.0
2017-Oct-14 19:30N 29°36' W 095°01'0 0.0
2017-Oct-14 19:00N 29°36' W 095°01'0 0.0
2017-Oct-14 18:30N 29°36' W 095°01'0 0.0
2017-Oct-14 18:00N 29°36' W 095°01'0 0.0
2017-Oct-14 17:30N 29°36' W 095°01'0 0.0
2017-Oct-14 17:00N 29°36' W 095°01'0 0.0
2017-Oct-14 16:30N 29°36' W 095°01'0 0.0
2017-Oct-14 16:00N 29°36' W 095°01'0 0.0
2017-Oct-14 15:30N 29°36' W 095°01'0 0.0
2017-Oct-14 15:00N 29°36' W 095°01'0 0.0
2017-Oct-14 14:30N 29°36' W 095°01'0 0.0
2017-Oct-14 14:00N 29°36' W 095°01'0 0.0
2017-Oct-14 13:30N 29°36' W 095°01'0 0.0
2017-Oct-14 13:00N 29°36' W 095°01'0 0.0
2017-Oct-14 12:30N 29°36' W 095°01'0 0.0
2017-Oct-14 12:00N 29°36' W 095°01'0 0.0
2017-Oct-14 11:30N 29°36' W 095°01'0 0.0
2017-Oct-14 11:00N 29°36' W 095°01'0 0.0
2017-Oct-14 10:30N 29°36' W 095°01'0 0.0
2017-Oct-14 10:00N 29°36' W 095°01'0 0.0
2017-Oct-14 09:30N 29°36' W 095°01'0 0.0
2017-Oct-14 09:00N 29°36' W 095°01'0 0.0
2017-Oct-14 08:30N 29°36' W 095°01'0 0.0
2017-Oct-14 08:00N 29°36' W 095°01'0 0.0
2017-Oct-14 07:30N 29°36' W 095°01'0 0.4
2017-Oct-14 07:00N 29°37' W 095°01'0 0.4
2017-Oct-14 06:30N 29°37' W 095°01'0 0.1
2017-Oct-14 06:00N 29°37' W 095°01'0 0.0
2017-Oct-14 05:30N 29°37' W 095°01'0 0.9
2017-Oct-14 05:00N 29°37' W 095°01'3 4.5
2017-Oct-14 04:15N 29°39' W 094°58'2 7.5
2017-Oct-14 04:00N 29°41' W 094°59'7 0.3
2017-Oct-13 02:06N 29°45' W 095°06'1 3.6
2017-Oct-13 01:57N 29°46' W 095°06'3 0.6
2017-Oct-12 19:57N 29°44' W 095°09'3 6.0
2017-Oct-12 19:30N 29°44' W 095°12'2 3.3
2017-Oct-12 19:00N 29°44' W 095°14'0 0.1
2017-Oct-12 18:30N 29°44' W 095°14'2 4.2
2017-Oct-12 17:59N 29°43' W 095°16'1 2.8
2017-Oct-12 17:29N 29°43' W 095°14'5 5.2
2017-Oct-12 16:33N 29°44' W 095°09'3 0.9
2017-Oct-12 13:36N 29°45' W 095°06'1 7.2
2017-Oct-12 13:28N 29°44' W 095°07'4 6.9
2017-Oct-12 12:52N 29°45' W 095°12'2 6.7
2017-Oct-12 12:30N 29°43' W 095°14'1 1.2
2017-Oct-12 11:54N 29°44' W 095°15'0 0.0
2017-Oct-12 11:29N 29°44' W 095°15'0 0.1
2017-Oct-12 10:56N 29°44' W 095°15'0 0.0
2017-Oct-12 10:23N 29°44' W 095°15'1 1.6
2017-Oct-12 09:57N 29°43' W 095°14'4 6.1
2017-Oct-12 09:16N 29°44' W 095°10'2 6.6
2017-Oct-12 09:00N 29°44' W 095°08'  
Track history (hours):
 
Tides and Currents Weather Stations Pressure Air Temp Water Temp Dewpoint Dewpoint Depression Visibility Wind Speed Wind Dir Waves Ship Positions

Colt

Owner: ACL Transportation Services LLC, Jeffersonville, IN. More information available from US FCC via Universal Licensing System and Coast Guard Vessel Documentation Center.

Last reported at 2017-Oct-22 05:49 UTC. Time now 2017-Oct-22 06:23 UTC.
Position N 29°46' W 095°05'.

Length 20 m; draft 2.9 m.

Type: Towing. MMSI: 367054790.

Date/timePositionNaut miles runAvg speedWind from/ knotsBaromVisibWave heightAir tempDewpointWater temp
2017-Oct-22 05:49N 29°46' W 095°05'0 0.0
2017-Oct-22 04:10N 29°46' W 095°05'0 0.0
2017-Oct-22 03:58N 29°46' W 095°05'0 0.0
2017-Oct-21 22:10N 29°46' W 095°05'0 0.1
2017-Oct-21 21:41N 29°46' W 095°05'1 2.3
2017-Oct-21 21:19N 29°45' W 095°06'1 1.9
2017-Oct-21 21:00N 29°45' W 095°06'1 0.2
2017-Oct-21 17:28N 29°46' W 095°06'0 0.1
2017-Oct-21 16:56N 29°46' W 095°06'0 0.2
2017-Oct-21 16:30N 29°46' W 095°06'1 1.0
2017-Oct-21 15:44N 29°46' W 095°07'1 0.1
2017-Oct-21 05:53N 29°46' W 095°06'0 0.0
2017-Oct-21 05:29N 29°46' W 095°06'0 0.0
2017-Oct-21 04:59N 29°46' W 095°06'0 0.0
2017-Oct-21 04:28N 29°46' W 095°06'0 0.0
2017-Oct-20 14:54N 29°45' W 095°06'2 5.5
2017-Oct-20 14:30N 29°44' W 095°03'6 6.4
2017-Oct-20 13:30N 29°40' W 094°58'3 5.9
2017-Oct-20 13:00N 29°37' W 094°58'3 5.5
2017-Oct-20 12:30N 29°37' W 095°01'0 0.0
2017-Oct-20 12:00N 29°37' W 095°01'0 0.0
2017-Oct-20 11:30N 29°37' W 095°01'0 0.1
2017-Oct-20 11:00N 29°37' W 095°01'0 0.0
2017-Oct-20 10:30N 29°37' W 095°01'0 0.0
2017-Oct-20 10:00N 29°37' W 095°01'0 0.0
2017-Oct-20 09:30N 29°37' W 095°01'0 0.0
2017-Oct-20 09:00N 29°37' W 095°01'0 0.0
2017-Oct-20 08:30N 29°37' W 095°01'0 0.0
2017-Oct-20 08:00N 29°37' W 095°01'0 0.0
2017-Oct-20 07:30N 29°37' W 095°01'0 0.0
2017-Oct-20 07:00N 29°37' W 095°01'0 0.0
2017-Oct-20 06:30N 29°37' W 095°01'0 0.0
2017-Oct-20 06:00N 29°37' W 095°01'0 0.0
2017-Oct-20 05:30N 29°37' W 095°01'0 0.0
2017-Oct-20 05:00N 29°37' W 095°01'0 0.0
2017-Oct-20 04:30N 29°37' W 095°01'0 0.0
2017-Oct-20 04:00N 29°37' W 095°01'0 0.0
2017-Oct-20 03:30N 29°37' W 095°01'0 0.0
2017-Oct-20 03:00N 29°37' W 095°01'0 0.0
2017-Oct-20 02:30N 29°37' W 095°01'0 0.1
2017-Oct-20 02:00N 29°37' W 095°01'1 2.8
2017-Oct-20 01:30N 29°37' W 094°60'3 5.0
2017-Oct-20 00:51N 29°40' W 094°59'3 7.2
2017-Oct-20 00:26N 29°42' W 095°01'6 4.1
2017-Oct-19 22:53N 29°46' W 095°07'3 2.7
2017-Oct-19 21:55N 29°45' W 095°04'2 5.7
2017-Oct-19 21:30N 29°44' W 095°02'3 5.4
2017-Oct-19 21:00N 29°42' W 094°60'3 6.2
2017-Oct-19 20:30N 29°39' W 094°58'2 4.5
2017-Oct-19 20:00N 29°37' W 094°58'3 5.6
2017-Oct-19 19:30N 29°37' W 095°01'0 0.3
2017-Oct-19 19:00N 29°37' W 095°01'0 0.1
2017-Oct-19 18:30N 29°37' W 095°01'0 0.0
2017-Oct-19 18:00N 29°37' W 095°01'0 0.0
2017-Oct-19 17:30N 29°37' W 095°01'0 0.0
2017-Oct-19 17:00N 29°37' W 095°01'0 0.0
2017-Oct-19 16:30N 29°37' W 095°01'0 0.0
2017-Oct-19 16:00N 29°37' W 095°01'0 0.0
2017-Oct-19 15:30N 29°37' W 095°01'0 0.0
2017-Oct-19 15:00N 29°37' W 095°01'0 0.0
2017-Oct-19 14:30N 29°37' W 095°01'0 0.0
2017-Oct-19 14:00N 29°37' W 095°01'0 0.0
2017-Oct-19 13:30N 29°37' W 095°01'0 0.0
2017-Oct-19 13:00N 29°37' W 095°01'0 0.0
2017-Oct-19 12:30N 29°37' W 095°01'0 0.2
2017-Oct-19 12:00N 29°37' W 095°01'0 0.2
2017-Oct-19 11:30N 29°37' W 095°01'0 0.4
2017-Oct-19 11:00N 29°37' W 095°01'0 0.0
2017-Oct-19 10:30N 29°37' W 095°01'0 0.0
2017-Oct-19 10:00N 29°37' W 095°01'0 0.0
2017-Oct-19 09:30N 29°37' W 095°01'0 0.0
2017-Oct-19 09:00N 29°37' W 095°01'0 0.0
2017-Oct-19 08:30N 29°37' W 095°01'0 0.0
2017-Oct-19 08:00N 29°37' W 095°01'0 0.0
2017-Oct-19 07:30N 29°37' W 095°01'0 0.0
2017-Oct-19 07:00N 29°37' W 095°01'0 0.0
2017-Oct-19 06:30N 29°37' W 095°01'0 0.0
2017-Oct-19 06:00N 29°37' W 095°01'0 0.0
2017-Oct-19 05:30N 29°37' W 095°01'0 0.0
2017-Oct-19 05:00N 29°37' W 095°01'0 0.0
2017-Oct-19 04:30N 29°37' W 095°01'0 0.0
2017-Oct-19 04:00N 29°37' W 095°01'0 0.0
2017-Oct-19 03:30N 29°37' W 095°01'0 0.0
2017-Oct-19 03:00N 29°37' W 095°01'0 0.0
2017-Oct-19 02:30N 29°37' W 095°01'0 0.0
2017-Oct-19 02:00N 29°37' W 095°01'0 0.0
2017-Oct-19 01:30N 29°37' W 095°01'0 0.0
2017-Oct-19 01:00N 29°37' W 095°01'0 0.0
2017-Oct-19 00:30N 29°37' W 095°01'0 0.0
2017-Oct-19 00:00N 29°37' W 095°01'1 2.3
2017-Oct-18 23:30N 29°37' W 095°00'3 3.7
2017-Oct-18 22:41N 29°39' W 094°58'1 5.9
2017-Oct-18 22:30N 29°41' W 094°59'3 4.6
2017-Oct-18 21:57N 29°42' W 095°01'8 2.5
2017-Oct-18 18:51N 29°44' W 095°09'3 0.6
2017-Oct-18 13:34N 29°46' W 095°06'0 0.0
2017-Oct-18 13:06N 29°46' W 095°06'0 0.0
2017-Oct-18 12:56N 29°46' W 095°06'0 0.0
2017-Oct-18 12:30N 29°46' W 095°06'0 0.0
2017-Oct-18 11:59N 29°46' W 095°06'0 0.0
2017-Oct-18 11:30N 29°46' W 095°06'0 0.0
2017-Oct-18 10:59N 29°46' W 095°06'0 0.0
2017-Oct-18 10:30N 29°46' W 095°06'0 0.0
2017-Oct-18 09:59N 29°46' W 095°06'0 0.0
2017-Oct-18 09:03N 29°46' W 095°06'0 0.3
2017-Oct-18 08:55N 29°46' W 095°06'0 0.0
2017-Oct-18 08:30N 29°46' W 095°06'0 0.0
2017-Oct-18 07:42N 29°46' W 095°06'1 0.0
2017-Oct-17 13:55N 29°46' W 095°07'0 0.0
2017-Oct-17 13:23N 29°46' W 095°07'0 0.0
2017-Oct-17 12:55N 29°46' W 095°07'0 0.0
2017-Oct-17 12:30N 29°46' W 095°07'0 0.0
2017-Oct-17 12:00N 29°46' W 095°07'0 0.0
2017-Oct-17 11:30N 29°46' W 095°07'0 0.0
2017-Oct-17 10:59N 29°46' W 095°07'0 0.0
2017-Oct-17 10:30N 29°46' W 095°07'0 0.0
2017-Oct-17 09:58N 29°46' W 095°07'0 0.0
2017-Oct-17 09:30N 29°46' W 095°07'0 0.0
2017-Oct-17 08:59N 29°46' W 095°07'0 0.0
2017-Oct-17 08:30N 29°46' W 095°07'0 0.0
2017-Oct-17 08:00N 29°46' W 095°07'0 0.0
2017-Oct-17 07:30N 29°46' W 095°07'0 0.0
2017-Oct-17 07:00N 29°46' W 095°07'0 0.0
2017-Oct-17 06:30N 29°46' W 095°07'0 0.0
2017-Oct-17 06:00N 29°46' W 095°07'0 0.0
2017-Oct-17 05:29N 29°46' W 095°07'0 0.0
2017-Oct-17 05:00N 29°46' W 095°07'0 0.0
2017-Oct-17 04:30N 29°46' W 095°07'0 0.0
2017-Oct-17 03:59N 29°46' W 095°07'2 1.7
2017-Oct-17 02:53N 29°46' W 095°05'2 4.1
2017-Oct-17 02:27N 29°46' W 095°07'1 1.6
2017-Oct-17 01:46N 29°45' W 095°06'2 5.4
2017-Oct-17 01:19N 29°44' W 095°08'2 6.0
2017-Oct-17 00:55N 29°45' W 095°11'2 5.8
2017-Oct-17 00:30N 29°43' W 095°13'1 0.8
2017-Oct-16 23:44N 29°44' W 095°14'0 0.1
2017-Oct-16 23:29N 29°44' W 095°14'2 3.3
2017-Oct-16 22:51N 29°45' W 095°12'2 5.1
2017-Oct-16 22:26N 29°44' W 095°09'4 0.2
2017-Oct-16 04:41N 29°46' W 095°05'5 1.9
2017-Oct-16 01:53N 29°45' W 095°11'2 5.9
2017-Oct-16 01:30N 29°44' W 095°09'4 0.2
2017-Oct-15 06:37N 29°45' W 095°04'1 6.5
2017-Oct-15 06:29N 29°45' W 095°04'3 5.7
2017-Oct-15 06:00N 29°43' W 095°01'3 5.9
2017-Oct-15 05:30N 29°41' W 094°59'3 6.1
2017-Oct-15 05:00N 29°38' W 094°58'2 4.5
2017-Oct-15 04:30N 29°37' W 094°60'1 2.2
2017-Oct-15 04:00N 29°36' W 095°01'0 0.1
2017-Oct-15 03:30N 29°36' W 095°01'0 0.0
2017-Oct-15 03:00N 29°36' W 095°01'0 0.0
2017-Oct-15 02:30N 29°36' W 095°01'0 0.0
2017-Oct-15 02:00N 29°36' W 095°01'0 0.0
2017-Oct-15 01:30N 29°36' W 095°01'0 0.0
2017-Oct-15 01:00N 29°36' W 095°01'0 0.0
2017-Oct-15 00:30N 29°36' W 095°01'0 0.0
2017-Oct-15 00:00N 29°36' W 095°01'0 0.0
2017-Oct-14 23:30N 29°36' W 095°01'0 0.0
2017-Oct-14 23:00N 29°36' W 095°01'0 0.0
2017-Oct-14 22:30N 29°36' W 095°01'0 0.0
2017-Oct-14 22:00N 29°36' W 095°01'0 0.0
2017-Oct-14 21:30N 29°36' W 095°01'0 0.0
2017-Oct-14 21:00N 29°36' W 095°01'0 0.0
2017-Oct-14 20:30N 29°36' W 095°01'0 0.0
2017-Oct-14 20:00N 29°36' W 095°01'0 0.0
2017-Oct-14 19:30N 29°36' W 095°01'0 0.0
2017-Oct-14 19:00N 29°36' W 095°01'0 0.0
2017-Oct-14 18:30N 29°36' W 095°01'0 0.0
2017-Oct-14 18:00N 29°36' W 095°01'0 0.0
2017-Oct-14 17:30N 29°36' W 095°01'0 0.0
2017-Oct-14 17:00N 29°36' W 095°01'0 0.0
2017-Oct-14 16:30N 29°36' W 095°01'0 0.0
2017-Oct-14 16:00N 29°36' W 095°01'0 0.0
2017-Oct-14 15:30N 29°36' W 095°01'0 0.0
2017-Oct-14 15:00N 29°36' W 095°01'0 0.0
2017-Oct-14 14:30N 29°36' W 095°01'0 0.0
2017-Oct-14 14:00N 29°36' W 095°01'0 0.0
2017-Oct-14 13:30N 29°36' W 095°01'0 0.0
2017-Oct-14 13:00N 29°36' W 095°01'0 0.0
2017-Oct-14 12:30N 29°36' W 095°01'0 0.0
2017-Oct-14 12:00N 29°36' W 095°01'0 0.0
2017-Oct-14 11:30N 29°36' W 095°01'0 0.0
2017-Oct-14 11:00N 29°36' W 095°01'0 0.0
2017-Oct-14 10:30N 29°36' W 095°01'0 0.0
2017-Oct-14 10:00N 29°36' W 095°01'0 0.0
2017-Oct-14 09:30N 29°36' W 095°01'0 0.0
2017-Oct-14 09:00N 29°36' W 095°01'0 0.0
2017-Oct-14 08:30N 29°36' W 095°01'0 0.0
2017-Oct-14 08:00N 29°36' W 095°01'0 0.0
2017-Oct-14 07:30N 29°36' W 095°01'0 0.4
2017-Oct-14 07:00N 29°37' W 095°01'0 0.4
2017-Oct-14 06:30N 29°37' W 095°01'0 0.1
2017-Oct-14 06:00N 29°37' W 095°01'0 0.0
2017-Oct-14 05:30N 29°37' W 095°01'0 0.9
2017-Oct-14 05:00N 29°37' W 095°01'3 4.5
2017-Oct-14 04:15N 29°39' W 094°58'2 7.5
2017-Oct-14 04:00N 29°41' W 094°59'7 0.3
2017-Oct-13 02:06N 29°45' W 095°06'1 3.6
2017-Oct-13 01:57N 29°46' W 095°06'3 0.6
2017-Oct-12 19:57N 29°44' W 095°09'3 6.0
2017-Oct-12 19:30N 29°44' W 095°12'2 3.3
2017-Oct-12 19:00N 29°44' W 095°14'0 0.1
2017-Oct-12 18:30N 29°44' W 095°14'2 4.2
2017-Oct-12 17:59N 29°43' W 095°16'1 2.8
2017-Oct-12 17:29N 29°43' W 095°14'5 5.2
2017-Oct-12 16:33N 29°44' W 095°09'3 0.9
2017-Oct-12 13:36N 29°45' W 095°06'1 7.2
2017-Oct-12 13:28N 29°44' W 095°07'4 6.9
2017-Oct-12 12:52N 29°45' W 095°12'2 6.7
2017-Oct-12 12:30N 29°43' W 095°14'1 1.2
2017-Oct-12 11:54N 29°44' W 095°15'0 0.0
2017-Oct-12 11:29N 29°44' W 095°15'0 0.1
2017-Oct-12 10:56N 29°44' W 095°15'0 0.0
2017-Oct-12 10:23N 29°44' W 095°15'1 1.6
2017-Oct-12 09:57N 29°43' W 095°14'4 6.1
2017-Oct-12 09:16N 29°44' W 095°10'2 6.6
2017-Oct-12 09:00N 29°44' W 095°08'  

Dump ship's entire track history